Terminal Aerodrome Forecast
Issued by NWS

Home | Current Version | Previous Version | Text Only | Print | Product List | Glossary On
Versions: 1 2 3 4 5 6 7 8 9 10 11 12 13 14 15 16 17 18 19
963
FTUS46 KLOX 271348 AAC
TAFPRB
TAF AMD
KPRB 271348Z 2714/2812 33014KT P6SM SCT008 SCT012
     FM271500 32012KT P6SM SCT200
     FM272200 32018G28KT P6SM SCT200
     FM280500 33014G22KT P6SM SCT200=

USA.gov is the U.S. government's official web portal to all federal, state and local government web resources and services.